sensor_id;sensor_type;location;lat;lon;timestamp;temperature;humidity
80695;DHT22;70059;42.702;23.312;2023-09-08T00:02:27;20.50;57.90
80695;DHT22;70059;42.702;23.312;2023-09-08T00:04:54;20.40;58.10
80695;DHT22;70059;42.702;23.312;2023-09-08T00:07:20;20.60;57.90
80695;DHT22;70059;42.702;23.312;2023-09-08T00:09:46;20.60;57.50
80695;DHT22;70059;42.702;23.312;2023-09-08T00:12:12;20.80;57.70
80695;DHT22;70059;42.702;23.312;2023-09-08T00:14:38;21.00;57.30
80695;DHT22;70059;42.702;23.312;2023-09-08T00:17:04;20.80;57.80
80695;DHT22;70059;42.702;23.312;2023-09-08T00:19:30;20.90;58.50
80695;DHT22;70059;42.702;23.312;2023-09-08T00:21:56;20.80;58.40
80695;DHT22;70059;42.702;23.312;2023-09-08T00:24:22;20.80;59.50
80695;DHT22;70059;42.702;23.312;2023-09-08T00:26:48;20.60;58.10
80695;DHT22;70059;42.702;23.312;2023-09-08T00:29:13;20.50;58.00
80695;DHT22;70059;42.702;23.312;2023-09-08T00:31:39;20.40;58.60
80695;DHT22;70059;42.702;23.312;2023-09-08T00:34:05;20.30;58.80
80695;DHT22;70059;42.702;23.312;2023-09-08T00:36:32;20.30;58.30
80695;DHT22;70059;42.702;23.312;2023-09-08T00:38:57;20.30;57.70
80695;DHT22;70059;42.702;23.312;2023-09-08T00:41:23;20.40;57.60
80695;DHT22;70059;42.702;23.312;2023-09-08T00:43:49;20.20;57.50
80695;DHT22;70059;42.702;23.312;2023-09-08T00:46:16;20.20;57.80
80695;DHT22;70059;42.702;23.312;2023-09-08T00:48:42;20.10;57.10
80695;DHT22;70059;42.702;23.312;2023-09-08T00:51:08;19.90;56.10
80695;DHT22;70059;42.702;23.312;2023-09-08T00:53:35;19.80;56.50
80695;DHT22;70059;42.702;23.312;2023-09-08T00:56:02;19.80;55.70
80695;DHT22;70059;42.702;23.312;2023-09-08T00:58:28;19.80;55.50
80695;DHT22;70059;42.702;23.312;2023-09-08T01:00:54;19.80;55.60
80695;DHT22;70059;42.702;23.312;2023-09-08T01:03:23;19.80;55.90
80695;DHT22;70059;42.702;23.312;2023-09-08T01:05:49;20.00;55.80
80695;DHT22;70059;42.702;23.312;2023-09-08T01:08:15;20.20;55.90
80695;DHT22;70059;42.702;23.312;2023-09-08T01:10:41;20.30;56.20
80695;DHT22;70059;42.702;23.312;2023-09-08T01:13:07;20.50;56.40
80695;DHT22;70059;42.702;23.312;2023-09-08T01:15:33;20.60;56.20
80695;DHT22;70059;42.702;23.312;2023-09-08T01:17:59;20.70;56.30
80695;DHT22;70059;42.702;23.312;2023-09-08T01:20:29;20.70;55.70
80695;DHT22;70059;42.702;23.312;2023-09-08T01:25:32;20.70;56.00
80695;DHT22;70059;42.702;23.312;2023-09-08T01:28:00;20.60;56.00
80695;DHT22;70059;42.702;23.312;2023-09-08T01:30:28;20.70;55.70
80695;DHT22;70059;42.702;23.312;2023-09-08T01:32:58;20.70;54.90
80695;DHT22;70059;42.702;23.312;2023-09-08T01:35:25;20.70;54.90
80695;DHT22;70059;42.702;23.312;2023-09-08T01:37:50;20.80;54.80
80695;DHT22;70059;42.702;23.312;2023-09-08T01:40:16;20.70;54.90
80695;DHT22;70059;42.702;23.312;2023-09-08T01:42:42;20.70;54.70
80695;DHT22;70059;42.702;23.312;2023-09-08T01:45:08;20.70;54.80
80695;DHT22;70059;42.702;23.312;2023-09-08T01:47:34;20.70;54.70
80695;DHT22;70059;42.702;23.312;2023-09-08T01:50:00;20.80;54.70
80695;DHT22;70059;42.702;23.312;2023-09-08T01:52:27;20.70;55.00
80695;DHT22;70059;42.702;23.312;2023-09-08T01:54:52;20.70;55.20
80695;DHT22;70059;42.702;23.312;2023-09-08T01:57:18;20.70;55.00
80695;DHT22;70059;42.702;23.312;2023-09-08T01:59:44;20.60;55.30
80695;DHT22;70059;42.702;23.312;2023-09-08T02:02:11;20.50;55.20
80695;DHT22;70059;42.702;23.312;2023-09-08T02:04:36;20.60;55.60
80695;DHT22;70059;42.702;23.312;2023-09-08T02:07:02;20.50;56.20
80695;DHT22;70059;42.702;23.312;2023-09-08T02:09:34;20.40;56.10
80695;DHT22;70059;42.702;23.312;2023-09-08T02:12:00;20.40;56.30
80695;DHT22;70059;42.702;23.312;2023-09-08T02:14:25;20.30;56.50
80695;DHT22;70059;42.702;23.312;2023-09-08T02:16:51;20.40;57.30
80695;DHT22;70059;42.702;23.312;2023-09-08T02:19:17;20.40;56.50
80695;DHT22;70059;42.702;23.312;2023-09-08T02:21:43;20.30;57.00
80695;DHT22;70059;42.702;23.312;2023-09-08T02:24:08;20.00;57.60
80695;DHT22;70059;42.702;23.312;2023-09-08T02:26:35;19.70;58.40
80695;DHT22;70059;42.702;23.312;2023-09-08T02:29:01;19.80;58.60
80695;DHT22;70059;42.702;23.312;2023-09-08T02:31:27;20.00;58.50
80695;DHT22;70059;42.702;23.312;2023-09-08T02:33:53;20.10;58.70
80695;DHT22;70059;42.702;23.312;2023-09-08T02:36:19;20.10;58.40
80695;DHT22;70059;42.702;23.312;2023-09-08T02:38:51;20.20;57.90
80695;DHT22;70059;42.702;23.312;2023-09-08T02:41:17;20.20;57.80
80695;DHT22;70059;42.702;23.312;2023-09-08T02:43:42;20.20;58.00
80695;DHT22;70059;42.702;23.312;2023-09-08T02:46:08;20.20;58.20
80695;DHT22;70059;42.702;23.312;2023-09-08T02:48:35;20.20;58.30
80695;DHT22;70059;42.702;23.312;2023-09-08T02:51:00;20.10;58.40
80695;DHT22;70059;42.702;23.312;2023-09-08T02:53:26;20.10;58.40
80695;DHT22;70059;42.702;23.312;2023-09-08T02:55:55;20.10;58.70
80695;DHT22;70059;42.702;23.312;2023-09-08T02:58:21;20.10;59.10
80695;DHT22;70059;42.702;23.312;2023-09-08T03:00:46;19.90;59.50
80695;DHT22;70059;42.702;23.312;2023-09-08T03:03:12;19.90;60.00
80695;DHT22;70059;42.702;23.312;2023-09-08T03:05:38;19.60;60.00
80695;DHT22;70059;42.702;23.312;2023-09-08T03:08:04;19.60;61.30
80695;DHT22;70059;42.702;23.312;2023-09-08T03:10:30;19.50;61.30
80695;DHT22;70059;42.702;23.312;2023-09-08T03:13:00;19.60;61.70
80695;DHT22;70059;42.702;23.312;2023-09-08T03:15:25;19.50;61.60
80695;DHT22;70059;42.702;23.312;2023-09-08T03:17:54;19.50;61.80
80695;DHT22;70059;42.702;23.312;2023-09-08T03:20:20;19.30;62.00
80695;DHT22;70059;42.702;23.312;2023-09-08T03:22:46;19.40;63.70
80695;DHT22;70059;42.702;23.312;2023-09-08T03:25:16;19.40;64.20
80695;DHT22;70059;42.702;23.312;2023-09-08T03:27:41;19.30;64.00
80695;DHT22;70059;42.702;23.312;2023-09-08T03:30:07;19.20;63.50
80695;DHT22;70059;42.702;23.312;2023-09-08T03:32:33;19.20;64.00
80695;DHT22;70059;42.702;23.312;2023-09-08T03:34:59;19.10;64.00
80695;DHT22;70059;42.702;23.312;2023-09-08T03:37:25;19.20;64.10
80695;DHT22;70059;42.702;23.312;2023-09-08T03:39:52;19.20;64.10
80695;DHT22;70059;42.702;23.312;2023-09-08T03:42:18;19.20;63.30
80695;DHT22;70059;42.702;23.312;2023-09-08T03:44:44;19.20;64.10
80695;DHT22;70059;42.702;23.312;2023-09-08T03:47:09;19.20;64.10
80695;DHT22;70059;42.702;23.312;2023-09-08T03:49:35;19.10;64.00
80695;DHT22;70059;42.702;23.312;2023-09-08T03:52:01;19.10;64.10
80695;DHT22;70059;42.702;23.312;2023-09-08T03:54:27;19.00;64.70
80695;DHT22;70059;42.702;23.312;2023-09-08T03:56:52;19.00;65.10
80695;DHT22;70059;42.702;23.312;2023-09-08T03:59:18;18.90;65.00
80695;DHT22;70059;42.702;23.312;2023-09-08T04:01:43;18.90;65.20
80695;DHT22;70059;42.702;23.312;2023-09-08T04:04:10;18.90;65.60
80695;DHT22;70059;42.702;23.312;2023-09-08T04:06:36;18.80;65.70
80695;DHT22;70059;42.702;23.312;2023-09-08T04:09:01;18.70;65.60
80695;DHT22;70059;42.702;23.312;2023-09-08T04:11:27;19.20;64.50
80695;DHT22;70059;42.702;23.312;2023-09-08T04:13:53;19.20;64.80
80695;DHT22;70059;42.702;23.312;2023-09-08T04:16:18;19.20;65.10
80695;DHT22;70059;42.702;23.312;2023-09-08T04:18:44;19.20;65.70
80695;DHT22;70059;42.702;23.312;2023-09-08T04:21:10;19.10;65.80
80695;DHT22;70059;42.702;23.312;2023-09-08T04:23:36;19.00;66.20
80695;DHT22;70059;42.702;23.312;2023-09-08T04:26:02;18.70;66.10
80695;DHT22;70059;42.702;23.312;2023-09-08T04:28:28;18.60;67.60
80695;DHT22;70059;42.702;23.312;2023-09-08T04:30:53;18.50;67.60
80695;DHT22;70059;42.702;23.312;2023-09-08T04:33:19;18.60;68.10
80695;DHT22;70059;42.702;23.312;2023-09-08T04:35:45;18.70;67.90
80695;DHT22;70059;42.702;23.312;2023-09-08T04:38:10;18.70;67.30
80695;DHT22;70059;42.702;23.312;2023-09-08T04:40:40;18.70;67.60
80695;DHT22;70059;42.702;23.312;2023-09-08T04:43:05;18.90;67.60
80695;DHT22;70059;42.702;23.312;2023-09-08T04:45:31;18.90;67.50
80695;DHT22;70059;42.702;23.312;2023-09-08T04:47:56;18.80;66.80
80695;DHT22;70059;42.702;23.312;2023-09-08T04:50:22;18.90;68.20
80695;DHT22;70059;42.702;23.312;2023-09-08T04:52:48;18.90;67.60
80695;DHT22;70059;42.702;23.312;2023-09-08T04:55:14;18.90;67.70
80695;DHT22;70059;42.702;23.312;2023-09-08T04:57:39;19.00;67.60
80695;DHT22;70059;42.702;23.312;2023-09-08T05:00:06;18.90;67.50
80695;DHT22;70059;42.702;23.312;2023-09-08T05:02:32;19.00;67.70
80695;DHT22;70059;42.702;23.312;2023-09-08T05:04:57;18.80;66.80
80695;DHT22;70059;42.702;23.312;2023-09-08T05:07:25;18.70;68.10
80695;DHT22;70059;42.702;23.312;2023-09-08T05:09:50;18.90;68.20
80695;DHT22;70059;42.702;23.312;2023-09-08T05:12:16;18.90;67.90
80695;DHT22;70059;42.702;23.312;2023-09-08T05:14:42;18.90;66.90
80695;DHT22;70059;42.702;23.312;2023-09-08T05:17:09;19.00;67.20
80695;DHT22;70059;42.702;23.312;2023-09-08T05:19:37;19.00;67.00
80695;DHT22;70059;42.702;23.312;2023-09-08T05:22:05;19.00;66.80
80695;DHT22;70059;42.702;23.312;2023-09-08T05:24:32;19.20;67.00
80695;DHT22;70059;42.702;23.312;2023-09-08T05:26:58;19.30;66.50
80695;DHT22;70059;42.702;23.312;2023-09-08T05:29:23;19.40;66.30
80695;DHT22;70059;42.702;23.312;2023-09-08T05:31:49;19.60;66.00
80695;DHT22;70059;42.702;23.312;2023-09-08T05:34:15;19.50;65.00
80695;DHT22;70059;42.702;23.312;2023-09-08T05:36:41;19.60;65.50
80695;DHT22;70059;42.702;23.312;2023-09-08T05:39:07;19.70;64.30
80695;DHT22;70059;42.702;23.312;2023-09-08T05:41:33;19.90;63.10
80695;DHT22;70059;42.702;23.312;2023-09-08T05:43:59;20.00;62.80
80695;DHT22;70059;42.702;23.312;2023-09-08T05:46:25;20.10;62.30
80695;DHT22;70059;42.702;23.312;2023-09-08T05:48:51;20.10;60.90
80695;DHT22;70059;42.702;23.312;2023-09-08T05:51:16;20.10;61.60
80695;DHT22;70059;42.702;23.312;2023-09-08T05:53:42;20.10;61.60
80695;DHT22;70059;42.702;23.312;2023-09-08T05:56:08;20.20;59.90
80695;DHT22;70059;42.702;23.312;2023-09-08T05:58:33;20.10;59.00
80695;DHT22;70059;42.702;23.312;2023-09-08T06:01:02;20.20;60.20
80695;DHT22;70059;42.702;23.312;2023-09-08T06:03:28;20.10;59.80
80695;DHT22;70059;42.702;23.312;2023-09-08T06:05:55;20.20;59.60
80695;DHT22;70059;42.702;23.312;2023-09-08T06:08:20;20.30;58.10
80695;DHT22;70059;42.702;23.312;2023-09-08T06:10:46;20.20;57.30
80695;DHT22;70059;42.702;23.312;2023-09-08T06:13:12;20.10;55.30
80695;DHT22;70059;42.702;23.312;2023-09-08T06:15:37;20.40;55.20
80695;DHT22;70059;42.702;23.312;2023-09-08T06:18:03;20.70;54.50
80695;DHT22;70059;42.702;23.312;2023-09-08T06:20:29;21.10;53.60
80695;DHT22;70059;42.702;23.312;2023-09-08T06:22:55;21.50;51.60
80695;DHT22;70059;42.702;23.312;2023-09-08T06:25:20;21.70;50.70
80695;DHT22;70059;42.702;23.312;2023-09-08T06:27:46;21.80;49.00
80695;DHT22;70059;42.702;23.312;2023-09-08T06:30:15;22.00;49.40
80695;DHT22;70059;42.702;23.312;2023-09-08T06:32:42;22.20;49.90
80695;DHT22;70059;42.702;23.312;2023-09-08T06:35:08;22.50;47.00
80695;DHT22;70059;42.702;23.312;2023-09-08T06:37:37;22.90;45.60
80695;DHT22;70059;42.702;23.312;2023-09-08T06:40:04;23.40;45.00
80695;DHT22;70059;42.702;23.312;2023-09-08T06:42:30;23.80;44.00
80695;DHT22;70059;42.702;23.312;2023-09-08T06:44:56;24.40;40.90
80695;DHT22;70059;42.702;23.312;2023-09-08T06:47:21;24.70;39.70
80695;DHT22;70059;42.702;23.312;2023-09-08T06:49:47;25.20;38.00
80695;DHT22;70059;42.702;23.312;2023-09-08T06:52:13;24.70;38.00
80695;DHT22;70059;42.702;23.312;2023-09-08T06:54:39;24.70;37.80
80695;DHT22;70059;42.702;23.312;2023-09-08T06:57:04;25.40;36.20
80695;DHT22;70059;42.702;23.312;2023-09-08T06:59:30;26.60;35.40
80695;DHT22;70059;42.702;23.312;2023-09-08T07:01:56;26.50;32.70
80695;DHT22;70059;42.702;23.312;2023-09-08T07:04:21;26.70;34.40
80695;DHT22;70059;42.702;23.312;2023-09-08T07:06:47;26.70;31.90
80695;DHT22;70059;42.702;23.312;2023-09-08T07:09:13;27.20;32.20
80695;DHT22;70059;42.702;23.312;2023-09-08T07:11:38;26.90;31.20
80695;DHT22;70059;42.702;23.312;2023-09-08T07:14:04;27.50;30.70
80695;DHT22;70059;42.702;23.312;2023-09-08T07:16:30;27.20;30.00
80695;DHT22;70059;42.702;23.312;2023-09-08T07:18:55;28.20;28.70
80695;DHT22;70059;42.702;23.312;2023-09-08T07:21:21;28.20;27.70
80695;DHT22;70059;42.702;23.312;2023-09-08T07:23:47;27.30;28.70
80695;DHT22;70059;42.702;23.312;2023-09-08T07:26:12;26.70;29.80
80695;DHT22;70059;42.702;23.312;2023-09-08T07:28:39;27.40;28.80
80695;DHT22;70059;42.702;23.312;2023-09-08T07:31:05;28.40;29.00
80695;DHT22;70059;42.702;23.312;2023-09-08T07:33:34;28.00;27.50
80695;DHT22;70059;42.702;23.312;2023-09-08T07:36:07;29.30;26.90
80695;DHT22;70059;42.702;23.312;2023-09-08T07:38:33;30.30;25.10
80695;DHT22;70059;42.702;23.312;2023-09-08T07:41:00;31.00;24.40
80695;DHT22;70059;42.702;23.312;2023-09-08T07:43:26;30.20;24.40
80695;DHT22;70059;42.702;23.312;2023-09-08T07:45:52;30.20;24.40
80695;DHT22;70059;42.702;23.312;2023-09-08T07:48:18;29.00;25.60
80695;DHT22;70059;42.702;23.312;2023-09-08T07:50:43;28.50;27.20
80695;DHT22;70059;42.702;23.312;2023-09-08T07:53:10;29.40;26.90
80695;DHT22;70059;42.702;23.312;2023-09-08T07:55:36;29.20;26.30
80695;DHT22;70059;42.702;23.312;2023-09-08T07:58:02;28.60;26.40
80695;DHT22;70059;42.702;23.312;2023-09-08T08:00:29;29.80;26.30
80695;DHT22;70059;42.702;23.312;2023-09-08T08:02:56;31.60;24.00
80695;DHT22;70059;42.702;23.312;2023-09-08T08:05:22;32.80;21.80
80695;DHT22;70059;42.702;23.312;2023-09-08T08:07:48;33.00;21.20
80695;DHT22;70059;42.702;23.312;2023-09-08T08:10:14;34.70;19.30
80695;DHT22;70059;42.702;23.312;2023-09-08T08:12:41;34.90;18.70
80695;DHT22;70059;42.702;23.312;2023-09-08T08:15:07;34.80;18.80
80695;DHT22;70059;42.702;23.312;2023-09-08T08:17:33;35.20;18.80
80695;DHT22;70059;42.702;23.312;2023-09-08T08:19:58;34.80;17.50
80695;DHT22;70059;42.702;23.312;2023-09-08T08:22:25;35.20;18.60
80695;DHT22;70059;42.702;23.312;2023-09-08T08:24:50;33.40;19.40
80695;DHT22;70059;42.702;23.312;2023-09-08T08:27:16;32.40;21.20
80695;DHT22;70059;42.702;23.312;2023-09-08T08:29:42;31.80;21.20
80695;DHT22;70059;42.702;23.312;2023-09-08T08:32:07;29.50;25.00
80695;DHT22;70059;42.702;23.312;2023-09-08T08:34:33;28.90;26.70
80695;DHT22;70059;42.702;23.312;2023-09-08T08:36:59;30.10;25.70
80695;DHT22;70059;42.702;23.312;2023-09-08T08:39:24;29.30;25.90
80695;DHT22;70059;42.702;23.312;2023-09-08T08:41:50;29.80;26.20
80695;DHT22;70059;42.702;23.312;2023-09-08T08:44:17;30.00;24.90
80695;DHT22;70059;42.702;23.312;2023-09-08T08:46:45;29.90;25.30
80695;DHT22;70059;42.702;23.312;2023-09-08T08:49:14;29.70;25.90
80695;DHT22;70059;42.702;23.312;2023-09-08T08:51:44;29.30;25.90
80695;DHT22;70059;42.702;23.312;2023-09-08T08:54:13;29.00;26.40
80695;DHT22;70059;42.702;23.312;2023-09-08T08:56:39;29.00;27.20
80695;DHT22;70059;42.702;23.312;2023-09-08T08:59:05;29.10;26.50
80695;DHT22;70059;42.702;23.312;2023-09-08T09:01:31;29.10;27.10
80695;DHT22;70059;42.702;23.312;2023-09-08T09:03:58;29.30;26.00
80695;DHT22;70059;42.702;23.312;2023-09-08T09:06:23;29.40;26.20
80695;DHT22;70059;42.702;23.312;2023-09-08T09:08:49;29.30;26.40
80695;DHT22;70059;42.702;23.312;2023-09-08T09:11:15;29.20;26.20
80695;DHT22;70059;42.702;23.312;2023-09-08T09:13:41;27.50;26.90
80695;DHT22;70059;42.702;23.312;2023-09-08T09:16:07;27.00;28.30
80695;DHT22;70059;42.702;23.312;2023-09-08T09:18:57;27.00;28.90
80695;DHT22;70059;42.702;23.312;2023-09-08T09:21:23;25.40;30.10
80695;DHT22;70059;42.702;23.312;2023-09-08T09:23:49;24.70;32.50
80695;DHT22;70059;42.702;23.312;2023-09-08T09:26:25;24.50;32.90
80695;DHT22;70059;42.702;23.312;2023-09-08T09:28:52;25.00;33.10
80695;DHT22;70059;42.702;23.312;2023-09-08T09:31:23;24.80;32.20
80695;DHT22;70059;42.702;23.312;2023-09-08T09:34:02;24.60;32.60
80695;DHT22;70059;42.702;23.312;2023-09-08T09:36:29;24.20;33.50
80695;DHT22;70059;42.702;23.312;2023-09-08T09:38:59;24.40;34.10
80695;DHT22;70059;42.702;23.312;2023-09-08T09:41:28;25.00;32.90
80695;DHT22;70059;42.702;23.312;2023-09-08T09:43:56;25.30;32.30
80695;DHT22;70059;42.702;23.312;2023-09-08T09:46:22;26.00;32.10
80695;DHT22;70059;42.702;23.312;2023-09-08T09:48:51;26.50;31.40
80695;DHT22;70059;42.702;23.312;2023-09-08T09:51:20;27.30;30.00
80695;DHT22;70059;42.702;23.312;2023-09-08T09:53:46;28.00;28.90
80695;DHT22;70059;42.702;23.312;2023-09-08T09:56:13;28.90;27.80
80695;DHT22;70059;42.702;23.312;2023-09-08T09:58:40;30.10;25.90
80695;DHT22;70059;42.702;23.312;2023-09-08T10:01:08;31.10;24.60
80695;DHT22;70059;42.702;23.312;2023-09-08T10:03:38;31.60;24.10
80695;DHT22;70059;42.702;23.312;2023-09-08T10:06:05;31.40;23.70
80695;DHT22;70059;42.702;23.312;2023-09-08T10:08:32;31.50;24.00
80695;DHT22;70059;42.702;23.312;2023-09-08T10:11:01;32.40;22.80
80695;DHT22;70059;42.702;23.312;2023-09-08T10:13:32;33.70;21.20
80695;DHT22;70059;42.702;23.312;2023-09-08T10:16:01;34.30;19.50
80695;DHT22;70059;42.702;23.312;2023-09-08T10:18:28;32.80;22.00
80695;DHT22;70059;42.702;23.312;2023-09-08T10:20:58;32.50;22.40
80695;DHT22;70059;42.702;23.312;2023-09-08T10:23:49;32.30;23.50
80695;DHT22;70059;42.702;23.312;2023-09-08T10:26:21;31.80;24.30
80695;DHT22;70059;42.702;23.312;2023-09-08T10:28:49;31.10;24.20
80695;DHT22;70059;42.702;23.312;2023-09-08T10:31:16;31.80;23.90
80695;DHT22;70059;42.702;23.312;2023-09-08T10:33:43;32.40;23.50
80695;DHT22;70059;42.702;23.312;2023-09-08T10:36:10;32.50;22.80
80695;DHT22;70059;42.702;23.312;2023-09-08T10:38:36;32.50;23.20
80695;DHT22;70059;42.702;23.312;2023-09-08T10:43:56;32.00;23.80
80695;DHT22;70059;42.702;23.312;2023-09-08T10:46:26;31.60;24.00
80695;DHT22;70059;42.702;23.312;2023-09-08T10:48:55;31.10;25.20
80695;DHT22;70059;42.702;23.312;2023-09-08T10:51:25;31.40;24.60
80695;DHT22;70059;42.702;23.312;2023-09-08T10:53:51;32.50;23.80
80695;DHT22;70059;42.702;23.312;2023-09-08T10:56:17;32.50;22.80
80695;DHT22;70059;42.702;23.312;2023-09-08T10:58:51;32.50;22.70
80695;DHT22;70059;42.702;23.312;2023-09-08T11:01:21;32.80;22.90
80695;DHT22;70059;42.702;23.312;2023-09-08T11:03:54;34.30;20.80
80695;DHT22;70059;42.702;23.312;2023-09-08T11:06:20;35.40;19.20
80695;DHT22;70059;42.702;23.312;2023-09-08T11:08:50;36.10;18.40
80695;DHT22;70059;42.702;23.312;2023-09-08T11:11:21;35.70;18.70
80695;DHT22;70059;42.702;23.312;2023-09-08T11:13:47;35.40;18.90
80695;DHT22;70059;42.702;23.312;2023-09-08T11:16:16;34.90;19.40
80695;DHT22;70059;42.702;23.312;2023-09-08T11:18:46;34.50;20.00
80695;DHT22;70059;42.702;23.312;2023-09-08T11:21:12;33.90;21.00
80695;DHT22;70059;42.702;23.312;2023-09-08T11:23:38;35.10;19.40
80695;DHT22;70059;42.702;23.312;2023-09-08T11:26:04;36.60;17.70
80695;DHT22;70059;42.702;23.312;2023-09-08T11:28:32;37.50;16.70
80695;DHT22;70059;42.702;23.312;2023-09-08T11:30:57;38.40;16.30
80695;DHT22;70059;42.702;23.312;2023-09-08T11:33:23;38.90;15.40
80695;DHT22;70059;42.702;23.312;2023-09-08T11:35:51;38.80;15.20
80695;DHT22;70059;42.702;23.312;2023-09-08T11:38:27;38.50;15.60
80695;DHT22;70059;42.702;23.312;2023-09-08T11:40:54;37.80;16.10
80695;DHT22;70059;42.702;23.312;2023-09-08T11:43:20;37.60;16.60
80695;DHT22;70059;42.702;23.312;2023-09-08T11:45:47;37.50;16.60
80695;DHT22;70059;42.702;23.312;2023-09-08T11:48:14;38.60;15.90
80695;DHT22;70059;42.702;23.312;2023-09-08T11:50:44;40.00;14.00
80695;DHT22;70059;42.702;23.312;2023-09-08T11:53:10;41.40;14.00
80695;DHT22;70059;42.702;23.312;2023-09-08T11:55:36;42.40;12.10
80695;DHT22;70059;42.702;23.312;2023-09-08T11:58:05;43.00;11.30
80695;DHT22;70059;42.702;23.312;2023-09-08T12:00:31;43.80;10.90
80695;DHT22;70059;42.702;23.312;2023-09-08T12:03:12;44.20;10.40
80695;DHT22;70059;42.702;23.312;2023-09-08T12:05:39;44.80;9.40
80695;DHT22;70059;42.702;23.312;2023-09-08T12:08:06;42.20;11.80
80695;DHT22;70059;42.702;23.312;2023-09-08T12:10:38;39.50;13.10
80695;DHT22;70059;42.702;23.312;2023-09-08T12:13:04;37.40;15.80
80695;DHT22;70059;42.702;23.312;2023-09-08T12:18:01;38.80;15.20
80695;DHT22;70059;42.702;23.312;2023-09-08T12:20:27;40.30;13.40
80695;DHT22;70059;42.702;23.312;2023-09-08T12:22:53;41.30;12.20
80695;DHT22;70059;42.702;23.312;2023-09-08T12:25:19;42.00;11.80
80695;DHT22;70059;42.702;23.312;2023-09-08T12:27:46;42.50;11.40
80695;DHT22;70059;42.702;23.312;2023-09-08T12:30:22;42.50;10.80
80695;DHT22;70059;42.702;23.312;2023-09-08T12:32:51;42.20;11.30
80695;DHT22;70059;42.702;23.312;2023-09-08T12:35:23;42.20;11.40
80695;DHT22;70059;42.702;23.312;2023-09-08T12:37:59;40.50;12.40
80695;DHT22;70059;42.702;23.312;2023-09-08T12:40:26;40.80;13.00
80695;DHT22;70059;42.702;23.312;2023-09-08T12:42:52;41.00;12.80
80695;DHT22;70059;42.702;23.312;2023-09-08T12:45:19;42.00;11.80
80695;DHT22;70059;42.702;23.312;2023-09-08T12:47:45;42.20;11.50
80695;DHT22;70059;42.702;23.312;2023-09-08T12:50:11;41.60;12.40
80695;DHT22;70059;42.702;23.312;2023-09-08T12:52:39;40.50;12.80
80695;DHT22;70059;42.702;23.312;2023-09-08T12:55:05;39.40;13.90
80695;DHT22;70059;42.702;23.312;2023-09-08T12:57:31;38.10;15.10
80695;DHT22;70059;42.702;23.312;2023-09-08T12:59:57;38.30;15.40
80695;DHT22;70059;42.702;23.312;2023-09-08T13:02:22;39.10;14.80
80695;DHT22;70059;42.702;23.312;2023-09-08T13:04:48;38.90;14.50
80695;DHT22;70059;42.702;23.312;2023-09-08T13:07:18;38.30;15.10
80695;DHT22;70059;42.702;23.312;2023-09-08T13:09:44;37.60;15.90
80695;DHT22;70059;42.702;23.312;2023-09-08T13:12:10;37.90;15.80
80695;DHT22;70059;42.702;23.312;2023-09-08T13:14:36;38.10;15.10
80695;DHT22;70059;42.702;23.312;2023-09-08T13:17:33;37.50;15.40
80695;DHT22;70059;42.702;23.312;2023-09-08T13:19:59;36.00;17.10
80695;DHT22;70059;42.702;23.312;2023-09-08T13:22:24;36.00;16.90
80695;DHT22;70059;42.702;23.312;2023-09-08T13:24:50;35.90;17.70
80695;DHT22;70059;42.702;23.312;2023-09-08T13:27:16;35.60;18.20
80695;DHT22;70059;42.702;23.312;2023-09-08T13:29:43;35.10;18.70
80695;DHT22;70059;42.702;23.312;2023-09-08T13:32:09;34.50;18.60
80695;DHT22;70059;42.702;23.312;2023-09-08T13:34:35;34.20;19.00
80695;DHT22;70059;42.702;23.312;2023-09-08T13:37:01;33.00;18.70
80695;DHT22;70059;42.702;23.312;2023-09-08T13:39:28;31.30;21.40
80695;DHT22;70059;42.702;23.312;2023-09-08T13:41:55;29.30;23.50
80695;DHT22;70059;42.702;23.312;2023-09-08T13:44:34;29.30;24.50
80695;DHT22;70059;42.702;23.312;2023-09-08T13:46:59;30.70;23.40
80695;DHT22;70059;42.702;23.312;2023-09-08T13:49:26;31.20;22.20
80695;DHT22;70059;42.702;23.312;2023-09-08T13:51:51;32.10;21.70
80695;DHT22;70059;42.702;23.312;2023-09-08T13:54:19;32.60;21.10
80695;DHT22;70059;42.702;23.312;2023-09-08T13:56:44;32.50;19.90
80695;DHT22;70059;42.702;23.312;2023-09-08T13:59:10;32.40;21.00
80695;DHT22;70059;42.702;23.312;2023-09-08T14:01:37;31.10;21.70
80695;DHT22;70059;42.702;23.312;2023-09-08T14:04:05;30.00;23.20
80695;DHT22;70059;42.702;23.312;2023-09-08T14:06:32;29.20;25.30
80695;DHT22;70059;42.702;23.312;2023-09-08T14:08:57;29.90;24.40
80695;DHT22;70059;42.702;23.312;2023-09-08T14:11:23;30.50;23.70
80695;DHT22;70059;42.702;23.312;2023-09-08T14:13:49;31.50;22.30
80695;DHT22;70059;42.702;23.312;2023-09-08T14:28:39;31.60;21.20
80695;DHT22;70059;42.702;23.312;2023-09-08T14:31:04;32.30;22.40
80695;DHT22;70059;42.702;23.312;2023-09-08T14:33:30;32.40;22.20
80695;DHT22;70059;42.702;23.312;2023-09-08T14:35:56;32.30;22.30
80695;DHT22;70059;42.702;23.312;2023-09-08T14:38:23;32.00;22.20
80695;DHT22;70059;42.702;23.312;2023-09-08T14:40:56;31.70;22.80
80695;DHT22;70059;42.702;23.312;2023-09-08T14:43:23;31.30;23.10
80695;DHT22;70059;42.702;23.312;2023-09-08T14:45:49;30.90;24.10
80695;DHT22;70059;42.702;23.312;2023-09-08T14:48:15;30.70;23.90
80695;DHT22;70059;42.702;23.312;2023-09-08T14:50:41;30.30;24.70
80695;DHT22;70059;42.702;23.312;2023-09-08T14:53:06;30.10;25.00
80695;DHT22;70059;42.702;23.312;2023-09-08T14:55:32;29.90;25.10
80695;DHT22;70059;42.702;23.312;2023-09-08T14:57:58;29.60;25.30
80695;DHT22;70059;42.702;23.312;2023-09-08T15:00:24;29.50;25.70
80695;DHT22;70059;42.702;23.312;2023-09-08T15:02:49;29.30;25.80
80695;DHT22;70059;42.702;23.312;2023-09-08T15:05:15;29.20;26.00
80695;DHT22;70059;42.702;23.312;2023-09-08T15:07:41;29.10;26.50
80695;DHT22;70059;42.702;23.312;2023-09-08T15:10:07;29.00;26.90
80695;DHT22;70059;42.702;23.312;2023-09-08T15:12:32;28.80;27.00
80695;DHT22;70059;42.702;23.312;2023-09-08T15:14:58;28.80;26.50
80695;DHT22;70059;42.702;23.312;2023-09-08T15:17:24;28.70;26.70
80695;DHT22;70059;42.702;23.312;2023-09-08T15:19:49;28.50;27.00
80695;DHT22;70059;42.702;23.312;2023-09-08T15:22:15;28.20;27.30
80695;DHT22;70059;42.702;23.312;2023-09-08T15:24:41;28.00;27.90
80695;DHT22;70059;42.702;23.312;2023-09-08T15:27:06;27.80;27.70
80695;DHT22;70059;42.702;23.312;2023-09-08T15:29:32;27.50;27.60
80695;DHT22;70059;42.702;23.312;2023-09-08T15:31:58;27.40;28.10
80695;DHT22;70059;42.702;23.312;2023-09-08T15:34:23;27.50;28.00